sensor_id;sensor_type;location;lat;lon;timestamp;temperature;humidity
72772;SHT30;60894;42.544;1.516;2023-03-29T00:01:58;8.20;61.95
72772;SHT30;60894;42.544;1.516;2023-03-29T00:04:24;8.19;62.65
72772;SHT30;60894;42.544;1.516;2023-03-29T00:06:53;8.10;62.52
72772;SHT30;60894;42.544;1.516;2023-03-29T00:09:21;8.09;62.49
72772;SHT30;60894;42.544;1.516;2023-03-29T00:11:48;8.16;62.03
72772;SHT30;60894;42.544;1.516;2023-03-29T00:14:15;8.14;61.95
72772;SHT30;60894;42.544;1.516;2023-03-29T00:16:42;8.07;62.82
72772;SHT30;60894;42.544;1.516;2023-03-29T00:19:11;7.99;62.50
72772;SHT30;60894;42.544;1.516;2023-03-29T00:21:37;8.00;62.26
72772;SHT30;60894;42.544;1.516;2023-03-29T00:24:07;8.02;62.77
72772;SHT30;60894;42.544;1.516;2023-03-29T00:26:33;8.05;62.94
72772;SHT30;60894;42.544;1.516;2023-03-29T00:29:00;7.99;63.15
72772;SHT30;60894;42.544;1.516;2023-03-29T00:31:27;7.96;62.85
72772;SHT30;60894;42.544;1.516;2023-03-29T00:33:54;7.91;61.97
72772;SHT30;60894;42.544;1.516;2023-03-29T00:36:21;7.93;62.52
72772;SHT30;60894;42.544;1.516;2023-03-29T00:38:48;7.93;62.87
72772;SHT30;60894;42.544;1.516;2023-03-29T00:41:16;7.91;63.00
72772;SHT30;60894;42.544;1.516;2023-03-29T00:43:55;7.86;62.81
72772;SHT30;60894;42.544;1.516;2023-03-29T00:46:22;7.91;63.16
72772;SHT30;60894;42.544;1.516;2023-03-29T00:48:52;7.86;63.34
72772;SHT30;60894;42.544;1.516;2023-03-29T00:51:21;7.77;62.21
72772;SHT30;60894;42.544;1.516;2023-03-29T00:53:54;7.67;62.68
72772;SHT30;60894;42.544;1.516;2023-03-29T00:56:25;7.68;62.14
72772;SHT30;60894;42.544;1.516;2023-03-29T00:58:57;7.72;61.88
72772;SHT30;60894;42.544;1.516;2023-03-29T01:01:29;7.62;62.13
72772;SHT30;60894;42.544;1.516;2023-03-29T01:04:00;7.60;62.96
72772;SHT30;60894;42.544;1.516;2023-03-29T01:06:31;7.46;62.40
72772;SHT30;60894;42.544;1.516;2023-03-29T01:09:01;7.32;62.92
72772;SHT30;60894;42.544;1.516;2023-03-29T01:11:34;7.37;63.54
72772;SHT30;60894;42.544;1.516;2023-03-29T01:14:04;7.41;64.20
72772;SHT30;60894;42.544;1.516;2023-03-29T01:16:33;7.47;63.85
72772;SHT30;60894;42.544;1.516;2023-03-29T01:19:03;7.60;63.51
72772;SHT30;60894;42.544;1.516;2023-03-29T01:21:34;7.69;62.67
72772;SHT30;60894;42.544;1.516;2023-03-29T01:24:19;7.58;63.41
72772;SHT30;60894;42.544;1.516;2023-03-29T01:26:58;7.52;62.80
72772;SHT30;60894;42.544;1.516;2023-03-29T01:29:31;7.51;63.33
72772;SHT30;60894;42.544;1.516;2023-03-29T01:32:02;7.31;63.35
72772;SHT30;60894;42.544;1.516;2023-03-29T01:34:35;7.38;63.31
72772;SHT30;60894;42.544;1.516;2023-03-29T01:37:07;7.38;63.50
72772;SHT30;60894;42.544;1.516;2023-03-29T01:39:36;7.31;63.97
72772;SHT30;60894;42.544;1.516;2023-03-29T01:42:14;7.31;64.28
72772;SHT30;60894;42.544;1.516;2023-03-29T01:44:48;7.34;64.05
72772;SHT30;60894;42.544;1.516;2023-03-29T01:47:23;7.24;64.06
72772;SHT30;60894;42.544;1.516;2023-03-29T01:49:58;7.21;64.40
72772;SHT30;60894;42.544;1.516;2023-03-29T01:52:31;7.28;64.10
72772;SHT30;60894;42.544;1.516;2023-03-29T01:55:05;7.27;64.28
72772;SHT30;60894;42.544;1.516;2023-03-29T01:57:36;7.31;64.06
72772;SHT30;60894;42.544;1.516;2023-03-29T02:00:11;7.26;62.99
72772;SHT30;60894;42.544;1.516;2023-03-29T02:02:41;7.10;63.22
72772;SHT30;60894;42.544;1.516;2023-03-29T02:05:11;7.09;63.11
72772;SHT30;60894;42.544;1.516;2023-03-29T02:07:39;6.96;62.77
72772;SHT30;60894;42.544;1.516;2023-03-29T02:10:09;6.93;63.27
72772;SHT30;60894;42.544;1.516;2023-03-29T02:12:36;6.96;62.35
72772;SHT30;60894;42.544;1.516;2023-03-29T02:15:04;6.86;62.82
72772;SHT30;60894;42.544;1.516;2023-03-29T02:17:33;6.82;62.86
72772;SHT30;60894;42.544;1.516;2023-03-29T02:20:04;6.83;62.73
72772;SHT30;60894;42.544;1.516;2023-03-29T02:22:42;6.85;63.11
72772;SHT30;60894;42.544;1.516;2023-03-29T02:25:13;6.89;63.86
72772;SHT30;60894;42.544;1.516;2023-03-29T02:27:40;6.96;63.49
72772;SHT30;60894;42.544;1.516;2023-03-29T02:30:09;6.90;63.08
72772;SHT30;60894;42.544;1.516;2023-03-29T02:32:45;7.00;63.43
72772;SHT30;60894;42.544;1.516;2023-03-29T02:35:19;6.86;63.27
72772;SHT30;60894;42.544;1.516;2023-03-29T02:37:48;6.83;62.49
72772;SHT30;60894;42.544;1.516;2023-03-29T02:40:18;6.88;63.41
72772;SHT30;60894;42.544;1.516;2023-03-29T02:42:45;6.92;63.38
72772;SHT30;60894;42.544;1.516;2023-03-29T02:45:15;6.83;63.55
72772;SHT30;60894;42.544;1.516;2023-03-29T02:47:48;6.83;63.28
72772;SHT30;60894;42.544;1.516;2023-03-29T02:50:17;6.69;63.43
72772;SHT30;60894;42.544;1.516;2023-03-29T02:52:50;6.75;64.12
72772;SHT30;60894;42.544;1.516;2023-03-29T02:55:21;6.68;63.81
72772;SHT30;60894;42.544;1.516;2023-03-29T02:57:48;6.72;64.13
72772;SHT30;60894;42.544;1.516;2023-03-29T03:00:16;6.68;63.97
72772;SHT30;60894;42.544;1.516;2023-03-29T03:02:46;6.76;64.04
72772;SHT30;60894;42.544;1.516;2023-03-29T03:05:13;6.62;65.18
72772;SHT30;60894;42.544;1.516;2023-03-29T03:07:40;6.58;64.52
72772;SHT30;60894;42.544;1.516;2023-03-29T03:10:07;6.44;64.06
72772;SHT30;60894;42.544;1.516;2023-03-29T03:12:35;6.34;63.98
72772;SHT30;60894;42.544;1.516;2023-03-29T03:15:03;6.37;64.04
72772;SHT30;60894;42.544;1.516;2023-03-29T03:17:31;6.38;63.93
72772;SHT30;60894;42.544;1.516;2023-03-29T03:20:00;6.42;64.60
72772;SHT30;60894;42.544;1.516;2023-03-29T03:22:27;6.39;64.59
72772;SHT30;60894;42.544;1.516;2023-03-29T03:24:54;6.32;64.00
72772;SHT30;60894;42.544;1.516;2023-03-29T03:27:21;6.39;64.05
72772;SHT30;60894;42.544;1.516;2023-03-29T03:29:48;6.41;63.65
72772;SHT30;60894;42.544;1.516;2023-03-29T03:32:15;6.29;64.12
72772;SHT30;60894;42.544;1.516;2023-03-29T03:34:42;6.29;64.27
72772;SHT30;60894;42.544;1.516;2023-03-29T03:37:11;6.29;63.90
72772;SHT30;60894;42.544;1.516;2023-03-29T03:39:38;6.24;65.55
72772;SHT30;60894;42.544;1.516;2023-03-29T03:42:05;6.29;64.96
72772;SHT30;60894;42.544;1.516;2023-03-29T03:44:32;6.21;64.35
72772;SHT30;60894;42.544;1.516;2023-03-29T03:46:58;6.17;64.64
72772;SHT30;60894;42.544;1.516;2023-03-29T03:49:25;6.16;65.17
72772;SHT30;60894;42.544;1.516;2023-03-29T03:51:52;6.10;65.01
72772;SHT30;60894;42.544;1.516;2023-03-29T03:54:20;6.13;64.77
72772;SHT30;60894;42.544;1.516;2023-03-29T03:56:47;6.06;64.81
72772;SHT30;60894;42.544;1.516;2023-03-29T03:59:14;6.07;64.69
72772;SHT30;60894;42.544;1.516;2023-03-29T04:01:41;6.01;64.84
72772;SHT30;60894;42.544;1.516;2023-03-29T04:04:09;6.14;65.14
72772;SHT30;60894;42.544;1.516;2023-03-29T04:06:37;6.17;65.53
72772;SHT30;60894;42.544;1.516;2023-03-29T04:09:04;6.16;65.46
72772;SHT30;60894;42.544;1.516;2023-03-29T04:11:32;6.17;65.01
72772;SHT30;60894;42.544;1.516;2023-03-29T04:14:00;6.13;65.82
72772;SHT30;60894;42.544;1.516;2023-03-29T04:16:27;6.10;66.04
72772;SHT30;60894;42.544;1.516;2023-03-29T04:18:54;6.13;65.45
72772;SHT30;60894;42.544;1.516;2023-03-29T04:21:21;6.13;64.71
72772;SHT30;60894;42.544;1.516;2023-03-29T04:23:48;6.03;65.71
72772;SHT30;60894;42.544;1.516;2023-03-29T04:26:15;6.01;66.51
72772;SHT30;60894;42.544;1.516;2023-03-29T04:28:43;6.04;66.30
72772;SHT30;60894;42.544;1.516;2023-03-29T04:31:12;6.03;65.54
72772;SHT30;60894;42.544;1.516;2023-03-29T04:33:39;6.04;65.35
72772;SHT30;60894;42.544;1.516;2023-03-29T04:36:07;6.10;65.04
72772;SHT30;60894;42.544;1.516;2023-03-29T04:38:33;6.08;64.72
72772;SHT30;60894;42.544;1.516;2023-03-29T04:41:02;6.08;64.57
72772;SHT30;60894;42.544;1.516;2023-03-29T04:43:30;5.93;64.54
72772;SHT30;60894;42.544;1.516;2023-03-29T04:45:58;5.93;64.61
72772;SHT30;60894;42.544;1.516;2023-03-29T04:48:25;5.86;64.83
72772;SHT30;60894;42.544;1.516;2023-03-29T04:50:54;5.90;65.10
72772;SHT30;60894;42.544;1.516;2023-03-29T04:53:21;5.90;64.96
72772;SHT30;60894;42.544;1.516;2023-03-29T04:55:48;5.87;65.20
72772;SHT30;60894;42.544;1.516;2023-03-29T04:58:15;5.90;64.83
72772;SHT30;60894;42.544;1.516;2023-03-29T05:00:42;5.87;65.08
72772;SHT30;60894;42.544;1.516;2023-03-29T05:03:11;5.81;65.40
72772;SHT30;60894;42.544;1.516;2023-03-29T05:05:39;5.97;65.71
72772;SHT30;60894;42.544;1.516;2023-03-29T05:08:06;5.87;65.65
72772;SHT30;60894;42.544;1.516;2023-03-29T05:10:34;5.96;65.25
72772;SHT30;60894;42.544;1.516;2023-03-29T05:13:01;6.01;65.46
72772;SHT30;60894;42.544;1.516;2023-03-29T05:15:28;5.83;65.77
72772;SHT30;60894;42.544;1.516;2023-03-29T05:17:55;5.91;65.62
72772;SHT30;60894;42.544;1.516;2023-03-29T05:20:26;5.85;65.52
72772;SHT30;60894;42.544;1.516;2023-03-29T05:22:54;5.85;65.40
72772;SHT30;60894;42.544;1.516;2023-03-29T05:25:21;5.81;65.51
72772;SHT30;60894;42.544;1.516;2023-03-29T05:27:48;5.77;66.09
72772;SHT30;60894;42.544;1.516;2023-03-29T05:30:15;5.80;65.72
72772;SHT30;60894;42.544;1.516;2023-03-29T05:32:42;5.74;65.81
72772;SHT30;60894;42.544;1.516;2023-03-29T05:35:09;5.71;65.98
72772;SHT30;60894;42.544;1.516;2023-03-29T05:37:38;5.70;66.20
72772;SHT30;60894;42.544;1.516;2023-03-29T05:40:06;5.76;65.75
72772;SHT30;60894;42.544;1.516;2023-03-29T05:42:34;5.80;65.44
72772;SHT30;60894;42.544;1.516;2023-03-29T05:45:02;5.71;65.47
72772;SHT30;60894;42.544;1.516;2023-03-29T05:47:29;5.74;65.10
72772;SHT30;60894;42.544;1.516;2023-03-29T05:49:56;5.74;66.35
72772;SHT30;60894;42.544;1.516;2023-03-29T05:52:23;5.83;66.14
72772;SHT30;60894;42.544;1.516;2023-03-29T05:54:51;5.83;66.16
72772;SHT30;60894;42.544;1.516;2023-03-29T05:57:18;5.74;66.18
72772;SHT30;60894;42.544;1.516;2023-03-29T05:59:47;5.80;66.15
72772;SHT30;60894;42.544;1.516;2023-03-29T06:02:14;5.93;66.22
72772;SHT30;60894;42.544;1.516;2023-03-29T06:04:41;5.94;66.21
72772;SHT30;60894;42.544;1.516;2023-03-29T06:07:08;5.69;65.95
72772;SHT30;60894;42.544;1.516;2023-03-29T06:09:37;5.69;66.23
72772;SHT30;60894;42.544;1.516;2023-03-29T06:12:07;5.69;66.05
72772;SHT30;60894;42.544;1.516;2023-03-29T06:14:34;5.71;65.96
72772;SHT30;60894;42.544;1.516;2023-03-29T06:17:01;5.67;65.90
72772;SHT30;60894;42.544;1.516;2023-03-29T06:19:28;5.69;65.95
72772;SHT30;60894;42.544;1.516;2023-03-29T06:21:55;5.71;66.43
72772;SHT30;60894;42.544;1.516;2023-03-29T06:24:22;5.80;66.35
72772;SHT30;60894;42.544;1.516;2023-03-29T06:26:50;5.94;66.19
72772;SHT30;60894;42.544;1.516;2023-03-29T06:29:19;5.98;66.51
72772;SHT30;60894;42.544;1.516;2023-03-29T06:31:46;5.93;66.22
72772;SHT30;60894;42.544;1.516;2023-03-29T06:34:13;5.97;65.85
72772;SHT30;60894;42.544;1.516;2023-03-29T06:36:40;5.94;65.93
72772;SHT30;60894;42.544;1.516;2023-03-29T06:39:07;5.91;66.01
72772;SHT30;60894;42.544;1.516;2023-03-29T06:41:35;6.08;66.10
72772;SHT30;60894;42.544;1.516;2023-03-29T06:44:03;6.04;66.32
72772;SHT30;60894;42.544;1.516;2023-03-29T06:46:31;6.18;65.64
72772;SHT30;60894;42.544;1.516;2023-03-29T06:48:58;6.27;64.80
72772;SHT30;60894;42.544;1.516;2023-03-29T06:51:25;6.18;64.67
72772;SHT30;60894;42.544;1.516;2023-03-29T06:53:52;6.21;64.40
72772;SHT30;60894;42.544;1.516;2023-03-29T06:56:19;6.25;64.25
72772;SHT30;60894;42.544;1.516;2023-03-29T06:58:46;6.25;64.20
72772;SHT30;60894;42.544;1.516;2023-03-29T07:01:13;6.29;64.31
72772;SHT30;60894;42.544;1.516;2023-03-29T07:03:42;6.35;64.49
72772;SHT30;60894;42.544;1.516;2023-03-29T07:06:09;6.39;64.39
72772;SHT30;60894;42.544;1.516;2023-03-29T07:08:37;6.46;64.34
72772;SHT30;60894;42.544;1.516;2023-03-29T07:11:08;6.59;64.25
72772;SHT30;60894;42.544;1.516;2023-03-29T07:13:37;6.62;63.55
72772;SHT30;60894;42.544;1.516;2023-03-29T07:16:05;6.65;63.31
72772;SHT30;60894;42.544;1.516;2023-03-29T07:18:33;6.64;63.17
72772;SHT30;60894;42.544;1.516;2023-03-29T07:21:02;6.79;62.98
72772;SHT30;60894;42.544;1.516;2023-03-29T07:23:29;6.89;62.98
72772;SHT30;60894;42.544;1.516;2023-03-29T07:25:56;6.96;62.85
72772;SHT30;60894;42.544;1.516;2023-03-29T07:28:22;7.06;62.35
72772;SHT30;60894;42.544;1.516;2023-03-29T07:30:49;7.17;62.12
72772;SHT30;60894;42.544;1.516;2023-03-29T07:33:16;7.30;61.87
72772;SHT30;60894;42.544;1.516;2023-03-29T07:35:45;7.38;61.52
72772;SHT30;60894;42.544;1.516;2023-03-29T07:38:14;7.57;61.29
72772;SHT30;60894;42.544;1.516;2023-03-29T07:40:41;7.69;60.25
72772;SHT30;60894;42.544;1.516;2023-03-29T07:43:08;7.85;60.26
72772;SHT30;60894;42.544;1.516;2023-03-29T07:45:35;7.98;60.09
72772;SHT30;60894;42.544;1.516;2023-03-29T07:48:05;8.09;60.45
72772;SHT30;60894;42.544;1.516;2023-03-29T07:50:33;8.25;59.54
72772;SHT30;60894;42.544;1.516;2023-03-29T07:52:59;8.36;58.72
72772;SHT30;60894;42.544;1.516;2023-03-29T07:55:28;8.53;58.32
72772;SHT30;60894;42.544;1.516;2023-03-29T07:57:55;8.64;57.93
72772;SHT30;60894;42.544;1.516;2023-03-29T08:00:22;8.80;57.82
72772;SHT30;60894;42.544;1.516;2023-03-29T08:02:50;8.92;56.82
72772;SHT30;60894;42.544;1.516;2023-03-29T08:05:19;9.07;57.04
72772;SHT30;60894;42.544;1.516;2023-03-29T08:07:46;9.23;56.75
72772;SHT30;60894;42.544;1.516;2023-03-29T08:10:15;9.35;56.40
72772;SHT30;60894;42.544;1.516;2023-03-29T08:12:44;9.46;56.09
72772;SHT30;60894;42.544;1.516;2023-03-29T08:15:12;9.60;55.25
72772;SHT30;60894;42.544;1.516;2023-03-29T08:17:39;9.77;54.69
72772;SHT30;60894;42.544;1.516;2023-03-29T08:20:08;9.90;54.04
72772;SHT30;60894;42.544;1.516;2023-03-29T08:22:36;10.01;53.49
72772;SHT30;60894;42.544;1.516;2023-03-29T08:25:05;10.15;52.68
72772;SHT30;60894;42.544;1.516;2023-03-29T08:27:32;10.30;52.11
72772;SHT30;60894;42.544;1.516;2023-03-29T08:30:01;10.51;51.24
72772;SHT30;60894;42.544;1.516;2023-03-29T08:32:28;10.68;50.25
72772;SHT30;60894;42.544;1.516;2023-03-29T08:34:56;10.91;50.10
72772;SHT30;60894;42.544;1.516;2023-03-29T08:37:22;11.07;49.81
72772;SHT30;60894;42.544;1.516;2023-03-29T08:39:50;11.24;49.11
72772;SHT30;60894;42.544;1.516;2023-03-29T08:42:34;11.45;47.79
72772;SHT30;60894;42.544;1.516;2023-03-29T08:45:09;11.63;46.97
72772;SHT30;60894;42.544;1.516;2023-03-29T08:47:43;11.79;46.63
72772;SHT30;60894;42.544;1.516;2023-03-29T08:50:14;11.94;46.06
72772;SHT30;60894;42.544;1.516;2023-03-29T08:52:45;12.08;44.84
72772;SHT30;60894;42.544;1.516;2023-03-29T08:55:18;12.23;44.30
72772;SHT30;60894;42.544;1.516;2023-03-29T08:57:49;12.43;44.67
72772;SHT30;60894;42.544;1.516;2023-03-29T09:00:20;12.64;44.03
72772;SHT30;60894;42.544;1.516;2023-03-29T09:02:50;12.91;43.77
72772;SHT30;60894;42.544;1.516;2023-03-29T09:05:23;13.11;43.33
72772;SHT30;60894;42.544;1.516;2023-03-29T09:07:52;13.27;43.15
72772;SHT30;60894;42.544;1.516;2023-03-29T09:10:24;13.42;42.40
72772;SHT30;60894;42.544;1.516;2023-03-29T09:13:05;13.59;42.14
72772;SHT30;60894;42.544;1.516;2023-03-29T09:15:42;13.75;41.25
72772;SHT30;60894;42.544;1.516;2023-03-29T09:18:18;13.97;41.47
72772;SHT30;60894;42.544;1.516;2023-03-29T09:20:53;14.06;41.05
72772;SHT30;60894;42.544;1.516;2023-03-29T09:23:46;14.20;41.65
72772;SHT30;60894;42.544;1.516;2023-03-29T09:26:23;14.41;41.26
72772;SHT30;60894;42.544;1.516;2023-03-29T09:29:00;14.51;41.09
72772;SHT30;60894;42.544;1.516;2023-03-29T09:31:34;14.64;40.72
72772;SHT30;60894;42.544;1.516;2023-03-29T09:34:07;14.81;41.41
72772;SHT30;60894;42.544;1.516;2023-03-29T09:36:43;14.93;40.53
72772;SHT30;60894;42.544;1.516;2023-03-29T09:39:13;15.06;40.80
72772;SHT30;60894;42.544;1.516;2023-03-29T09:41:46;15.27;40.41
72772;SHT30;60894;42.544;1.516;2023-03-29T09:44:17;15.42;38.93
72772;SHT30;60894;42.544;1.516;2023-03-29T09:46:50;15.51;37.68
72772;SHT30;60894;42.544;1.516;2023-03-29T09:49:23;15.84;41.82
72772;SHT30;60894;42.544;1.516;2023-03-29T09:51:54;15.91;36.70
72772;SHT30;60894;42.544;1.516;2023-03-29T09:54:22;16.11;37.30
72772;SHT30;60894;42.544;1.516;2023-03-29T09:56:48;16.28;36.96
72772;SHT30;60894;42.544;1.516;2023-03-29T09:59:17;16.45;40.18
72772;SHT30;60894;42.544;1.516;2023-03-29T10:01:43;16.66;42.18
72772;SHT30;60894;42.544;1.516;2023-03-29T10:04:13;16.36;34.83
72772;SHT30;60894;42.544;1.516;2023-03-29T10:06:42;16.41;35.04
72772;SHT30;60894;42.544;1.516;2023-03-29T10:09:16;16.65;34.82
72772;SHT30;60894;42.544;1.516;2023-03-29T10:11:46;16.68;34.71
72772;SHT30;60894;42.544;1.516;2023-03-29T10:14:17;16.76;34.38
72772;SHT30;60894;42.544;1.516;2023-03-29T10:16:45;16.66;35.01
72772;SHT30;60894;42.544;1.516;2023-03-29T10:19:21;16.75;34.84
72772;SHT30;60894;42.544;1.516;2023-03-29T10:21:48;16.83;34.35
72772;SHT30;60894;42.544;1.516;2023-03-29T10:24:19;16.86;33.94
72772;SHT30;60894;42.544;1.516;2023-03-29T10:26:47;16.97;33.64
72772;SHT30;60894;42.544;1.516;2023-03-29T10:29:17;16.96;33.58
72772;SHT30;60894;42.544;1.516;2023-03-29T10:31:44;17.07;33.34
72772;SHT30;60894;42.544;1.516;2023-03-29T10:34:14;17.23;32.84
72772;SHT30;60894;42.544;1.516;2023-03-29T10:36:50;17.57;32.65
72772;SHT30;60894;42.544;1.516;2023-03-29T10:39:19;18.17;32.61
72772;SHT30;60894;42.544;1.516;2023-03-29T10:41:49;18.54;30.65
72772;SHT30;60894;42.544;1.516;2023-03-29T10:44:25;18.88;30.90
72772;SHT30;60894;42.544;1.516;2023-03-29T10:46:53;19.15;30.13
72772;SHT30;60894;42.544;1.516;2023-03-29T10:49:21;18.97;29.70
72772;SHT30;60894;42.544;1.516;2023-03-29T10:51:51;18.92;29.86
72772;SHT30;60894;42.544;1.516;2023-03-29T10:54:21;18.98;29.29
72772;SHT30;60894;42.544;1.516;2023-03-29T10:56:52;19.31;30.02
72772;SHT30;60894;42.544;1.516;2023-03-29T10:59:23;19.43;29.25
72772;SHT30;60894;42.544;1.516;2023-03-29T11:02:06;19.72;28.86
72772;SHT30;60894;42.544;1.516;2023-03-29T11:04:44;19.73;29.09
72772;SHT30;60894;42.544;1.516;2023-03-29T11:07:21;19.74;28.26
72772;SHT30;60894;42.544;1.516;2023-03-29T11:10:14;19.91;28.51
72772;SHT30;60894;42.544;1.516;2023-03-29T11:12:49;19.94;27.84
72772;SHT30;60894;42.544;1.516;2023-03-29T11:15:33;20.25;28.23
72772;SHT30;60894;42.544;1.516;2023-03-29T11:18:35;20.34;27.93
72772;SHT30;60894;42.544;1.516;2023-03-29T11:21:12;20.28;28.15
72772;SHT30;60894;42.544;1.516;2023-03-29T11:23:49;20.17;27.98
72772;SHT30;60894;42.544;1.516;2023-03-29T11:26:21;20.28;27.85
72772;SHT30;60894;42.544;1.516;2023-03-29T11:28:51;20.28;27.52
72772;SHT30;60894;42.544;1.516;2023-03-29T11:31:30;20.17;27.70
72772;SHT30;60894;42.544;1.516;2023-03-29T11:34:09;20.18;27.47
72772;SHT30;60894;42.544;1.516;2023-03-29T11:36:46;20.40;27.25
72772;SHT30;60894;42.544;1.516;2023-03-29T11:39:24;20.59;26.76
72772;SHT30;60894;42.544;1.516;2023-03-29T11:41:57;20.75;26.51
72772;SHT30;60894;42.544;1.516;2023-03-29T11:44:29;20.88;27.22
72772;SHT30;60894;42.544;1.516;2023-03-29T11:46:59;20.89;27.25
72772;SHT30;60894;42.544;1.516;2023-03-29T11:49:30;20.93;27.09
72772;SHT30;60894;42.544;1.516;2023-03-29T11:52:02;20.99;27.14
72772;SHT30;60894;42.544;1.516;2023-03-29T11:54:36;21.23;27.04
72772;SHT30;60894;42.544;1.516;2023-03-29T11:57:12;21.30;27.24
72772;SHT30;60894;42.544;1.516;2023-03-29T11:59:49;21.41;26.79
72772;SHT30;60894;42.544;1.516;2023-03-29T12:02:21;21.41;26.55
72772;SHT30;60894;42.544;1.516;2023-03-29T12:04:52;21.46;26.39
72772;SHT30;60894;42.544;1.516;2023-03-29T12:07:25;21.61;26.17
72772;SHT30;60894;42.544;1.516;2023-03-29T12:09:58;21.78;26.30
72772;SHT30;60894;42.544;1.516;2023-03-29T12:12:31;21.43;26.07
72772;SHT30;60894;42.544;1.516;2023-03-29T12:15:04;21.70;26.05
72772;SHT30;60894;42.544;1.516;2023-03-29T12:17:38;21.82;26.19
72772;SHT30;60894;42.544;1.516;2023-03-29T12:20:13;21.90;25.73
72772;SHT30;60894;42.544;1.516;2023-03-29T12:22:41;22.15;25.13
72772;SHT30;60894;42.544;1.516;2023-03-29T12:25:15;22.31;25.22
72772;SHT30;60894;42.544;1.516;2023-03-29T12:27:50;22.69;25.15
72772;SHT30;60894;42.544;1.516;2023-03-29T12:30:48;22.69;24.92
72772;SHT30;60894;42.544;1.516;2023-03-29T12:33:41;22.60;24.67
72772;SHT30;60894;42.544;1.516;2023-03-29T12:36:28;22.79;24.84
72772;SHT30;60894;42.544;1.516;2023-03-29T12:38:57;22.57;24.91
72772;SHT30;60894;42.544;1.516;2023-03-29T12:41:26;22.99;24.35
72772;SHT30;60894;42.544;1.516;2023-03-29T12:44:00;23.20;24.43
72772;SHT30;60894;42.544;1.516;2023-03-29T12:46:31;23.08;24.30
72772;SHT30;60894;42.544;1.516;2023-03-29T12:49:00;22.76;24.60
72772;SHT30;60894;42.544;1.516;2023-03-29T12:51:35;22.45;24.92
72772;SHT30;60894;42.544;1.516;2023-03-29T12:54:07;22.36;25.00
72772;SHT30;60894;42.544;1.516;2023-03-29T12:56:41;22.74;24.92
72772;SHT30;60894;42.544;1.516;2023-03-29T12:59:25;22.64;24.45
72772;SHT30;60894;42.544;1.516;2023-03-29T13:01:58;22.87;24.29
72772;SHT30;60894;42.544;1.516;2023-03-29T13:04:37;22.51;24.72
72772;SHT30;60894;42.544;1.516;2023-03-29T13:07:05;22.48;25.13
72772;SHT30;60894;42.544;1.516;2023-03-29T13:09:48;22.69;24.66
72772;SHT30;60894;42.544;1.516;2023-03-29T13:12:23;22.35;24.77
72772;SHT30;60894;42.544;1.516;2023-03-29T13:14:53;22.28;25.43
72772;SHT30;60894;42.544;1.516;2023-03-29T13:17:29;22.22;25.04
72772;SHT30;60894;42.544;1.516;2023-03-29T13:20:20;22.21;25.39
72772;SHT30;60894;42.544;1.516;2023-03-29T13:22:58;22.41;25.26
72772;SHT30;60894;42.544;1.516;2023-03-29T13:25:38;22.63;25.62
72772;SHT30;60894;42.544;1.516;2023-03-29T13:28:15;22.87;24.52
72772;SHT30;60894;42.544;1.516;2023-03-29T13:30:54;22.84;24.65
72772;SHT30;60894;42.544;1.516;2023-03-29T13:33:45;22.84;24.34
72772;SHT30;60894;42.544;1.516;2023-03-29T13:36:26;22.79;23.92
72772;SHT30;60894;42.544;1.516;2023-03-29T13:39:01;22.79;24.02
72772;SHT30;60894;42.544;1.516;2023-03-29T13:41:45;22.45;23.73
72772;SHT30;60894;42.544;1.516;2023-03-29T13:44:26;22.38;23.85
72772;SHT30;60894;42.544;1.516;2023-03-29T13:47:10;22.25;23.60
72772;SHT30;60894;42.544;1.516;2023-03-29T13:49:42;22.63;23.54
72772;SHT30;60894;42.544;1.516;2023-03-29T13:52:14;22.70;23.36
72772;SHT30;60894;42.544;1.516;2023-03-29T13:54:46;22.77;22.45
72772;SHT30;60894;42.544;1.516;2023-03-29T13:57:18;22.64;22.99
72772;SHT30;60894;42.544;1.516;2023-03-29T13:59:52;22.90;22.45
72772;SHT30;60894;42.544;1.516;2023-03-29T14:02:28;23.06;22.59
72772;SHT30;60894;42.544;1.516;2023-03-29T14:04:59;23.41;22.35
72772;SHT30;60894;42.544;1.516;2023-03-29T14:07:27;22.96;21.81
72772;SHT30;60894;42.544;1.516;2023-03-29T14:09:56;22.72;22.21
72772;SHT30;60894;42.544;1.516;2023-03-29T14:12:30;23.08;22.14
72772;SHT30;60894;42.544;1.516;2023-03-29T14:15:01;22.82;21.76
72772;SHT30;60894;42.544;1.516;2023-03-29T14:17:29;22.99;22.47
72772;SHT30;60894;42.544;1.516;2023-03-29T14:19:58;23.15;22.29
72772;SHT30;60894;42.544;1.516;2023-03-29T14:22:29;22.74;22.40
72772;SHT30;60894;42.544;1.516;2023-03-29T14:25:01;23.00;22.45
72772;SHT30;60894;42.544;1.516;2023-03-29T14:27:29;22.73;22.74
72772;SHT30;60894;42.544;1.516;2023-03-29T14:29:56;22.35;23.17
72772;SHT30;60894;42.544;1.516;2023-03-29T14:32:29;22.38;23.59
72772;SHT30;60894;42.544;1.516;2023-03-29T14:34:56;22.22;23.19
72772;SHT30;60894;42.544;1.516;2023-03-29T14:37:25;22.55;23.07
72772;SHT30;60894;42.544;1.516;2023-03-29T14:39:53;22.32;23.04
72772;SHT30;60894;42.544;1.516;2023-03-29T14:42:24;22.21;22.99
72772;SHT30;60894;42.544;1.516;2023-03-29T14:44:56;21.78;23.31
72772;SHT30;60894;42.544;1.516;2023-03-29T14:47:26;21.84;23.64
72772;SHT30;60894;42.544;1.516;2023-03-29T14:49:55;22.29;23.22
72772;SHT30;60894;42.544;1.516;2023-03-29T14:52:25;22.90;22.57
72772;SHT30;60894;42.544;1.516;2023-03-29T14:54:54;22.80;22.40
72772;SHT30;60894;42.544;1.516;2023-03-29T14:57:23;22.97;22.42
72772;SHT30;60894;42.544;1.516;2023-03-29T14:59:52;22.70;22.62
72772;SHT30;60894;42.544;1.516;2023-03-29T15:02:25;23.01;21.74
72772;SHT30;60894;42.544;1.516;2023-03-29T15:04:59;22.48;22.02
72772;SHT30;60894;42.544;1.516;2023-03-29T15:07:28;22.43;21.93
72772;SHT30;60894;42.544;1.516;2023-03-29T15:09:56;22.66;21.82
72772;SHT30;60894;42.544;1.516;2023-03-29T15:12:27;23.20;21.45
72772;SHT30;60894;42.544;1.516;2023-03-29T15:14:54;23.59;21.53
72772;SHT30;60894;42.544;1.516;2023-03-29T15:17:29;23.75;21.00
72772;SHT30;60894;42.544;1.516;2023-03-29T15:19:59;23.79;20.91
72772;SHT30;60894;42.544;1.516;2023-03-29T15:22:34;23.68;21.04
72772;SHT30;60894;42.544;1.516;2023-03-29T15:25:01;23.58;20.34
72772;SHT30;60894;42.544;1.516;2023-03-29T15:27:38;23.96;20.25
72772;SHT30;60894;42.544;1.516;2023-03-29T15:30:11;24.29;20.24
72772;SHT30;60894;42.544;1.516;2023-03-29T15:32:39;23.95;20.06
72772;SHT30;60894;42.544;1.516;2023-03-29T15:35:21;24.19;20.02
72772;SHT30;60894;42.544;1.516;2023-03-29T15:37:48;24.36;19.93
72772;SHT30;60894;42.544;1.516;2023-03-29T15:40:17;24.46;20.30
72772;SHT30;60894;42.544;1.516;2023-03-29T15:42:44;24.14;20.11
72772;SHT30;60894;42.544;1.516;2023-03-29T15:45:14;23.82;20.22
72772;SHT30;60894;42.544;1.516;2023-03-29T15:47:41;23.59;20.88
72772;SHT30;60894;42.544;1.516;2023-03-29T15:50:10;23.15;21.54
72772;SHT30;60894;42.544;1.516;2023-03-29T15:52:37;23.18;21.66
72772;SHT30;60894;42.544;1.516;2023-03-29T15:55:04;22.67;21.82
72772;SHT30;60894;42.544;1.516;2023-03-29T15:57:32;22.69;21.97
72772;SHT30;60894;42.544;1.516;2023-03-29T16:00:00;22.87;22.31
72772;SHT30;60894;42.544;1.516;2023-03-29T16:02:29;22.64;22.35